createdAt,value
2023-05-01T00:02:21.820Z,101804.50
2023-05-01T00:04:48.374Z,101811.00
2023-05-01T00:07:15.209Z,101800.94
2023-05-01T00:09:42.002Z,101791.66
2023-05-01T00:12:08.473Z,101796.31
2023-05-01T00:14:35.025Z,101794.63
2023-05-01T00:17:01.576Z,101794.91
2023-05-01T00:19:28.154Z,101785.91
2023-05-01T00:21:54.811Z,101786.19
2023-05-01T00:24:21.708Z,101779.91
2023-05-01T00:26:48.298Z,101789.19
2023-05-01T00:29:15.334Z,101781.56
2023-05-01T00:31:42.658Z,101776.63
2023-05-01T00:34:10.818Z,101772.00
2023-05-01T00:36:39.886Z,101768.44
2023-05-01T00:39:09.197Z,101767.63
2023-05-01T00:41:35.910Z,101761.34
2023-05-01T00:44:03.272Z,101757.78
2023-05-01T00:46:31.355Z,101760.78
2023-05-01T00:48:58.453Z,101751.78
2023-05-01T00:51:27.397Z,101760.22
2023-05-01T00:53:54.261Z,101740.06
2023-05-01T00:56:21.542Z,101736.53
2023-05-01T00:58:52.621Z,101729.97
2023-05-01T01:01:21.206Z,101725.03
2023-05-01T01:03:48.693Z,101729.41
2023-05-01T01:06:24.096Z,101720.41
2023-05-01T01:08:59.696Z,101722.31
2023-05-01T01:11:47.382Z,101724.22
2023-05-01T01:14:28.958Z,101710.84
2023-05-01T01:17:04.631Z,101719.03
2023-05-01T01:20:12.711Z,101707.88
2023-05-01T01:22:43.973Z,101711.91
2023-05-01T01:25:16.651Z,101703.19
2023-05-01T01:28:06.245Z,101703.19
2023-05-01T01:31:04.445Z,101700.47
2023-05-01T01:33:54.578Z,101694.19
2023-05-01T01:36:36.791Z,101706.16
2023-05-01T01:39:03.536Z,101701.00
2023-05-01T01:41:35.359Z,101687.88
2023-05-01T01:44:09.090Z,101687.34
2023-05-01T01:46:39.511Z,101682.72
2023-05-01T01:49:18.494Z,101678.06
2023-05-01T01:51:47.613Z,101675.34
2023-05-01T01:54:18.473Z,101680.28
2023-05-01T01:56:47.014Z,101661.19
2023-05-01T01:59:15.357Z,101667.97
2023-05-01T02:01:44.765Z,101661.44
2023-05-01T02:04:13.102Z,101658.69
2023-05-01T02:06:41.509Z,101655.16
2023-05-01T02:09:09.797Z,101654.34
2023-05-01T02:11:37.988Z,101644.53
2023-05-01T02:14:06.939Z,101641.81
2023-05-01T02:16:36.031Z,101637.41
2023-05-01T02:19:04.544Z,101637.41
2023-05-01T02:21:34.055Z,101646.16
2023-05-01T02:24:02.361Z,101639.88
2023-05-01T02:26:29.936Z,101628.97
2023-05-01T02:28:56.835Z,101627.06
2023-05-01T02:31:23.413Z,101639.63
2023-05-01T02:33:49.985Z,101623.50
2023-05-01T02:36:16.492Z,101614.50
2023-05-01T02:38:43.787Z,101626.22
2023-05-01T02:41:12.214Z,101625.16
2023-05-01T02:43:41.458Z,101623.25
2023-05-01T02:46:10.492Z,101627.34
2023-05-01T02:48:38.937Z,101611.53
2023-05-01T02:51:07.704Z,101606.88
2023-05-01T02:53:35.004Z,101604.41
2023-05-01T02:56:03.639Z,101601.69
2023-05-01T02:58:32.656Z,101596.50
2023-05-01T03:00:59.245Z,101594.88
2023-05-01T03:03:26.357Z,101594.06
2023-05-01T03:05:52.875Z,101591.59
2023-05-01T03:08:19.713Z,101591.59
2023-05-01T03:10:46.354Z,101582.59
2023-05-01T03:13:12.990Z,101578.78
2023-05-01T03:15:39.768Z,101585.31
2023-05-01T03:18:06.680Z,101577.44
2023-05-01T03:20:33.610Z,101576.34
2023-05-01T03:23:00.136Z,101583.69
2023-05-01T03:25:26.707Z,101576.34
2023-05-01T03:27:54.929Z,101565.72
2023-05-01T03:30:21.801Z,101568.44
2023-05-01T03:32:48.336Z,101566.78
2023-05-01T03:35:14.952Z,101566.53
2023-05-01T03:37:41.465Z,101561.88
2023-05-01T03:40:08.567Z,101554.78
2023-05-01T03:42:35.077Z,101565.97
2023-05-01T03:45:01.650Z,101558.88
2023-05-01T03:47:28.450Z,101553.44
2023-05-01T03:49:55.824Z,101555.59
2023-05-01T03:52:22.786Z,101552.88
2023-05-01T03:54:50.007Z,101546.59
2023-05-01T03:57:16.580Z,101550.13
2023-05-01T03:59:43.842Z,101550.94
2023-05-01T04:02:10.697Z,101547.69
2023-05-01T04:04:37.399Z,101543.06
2023-05-01T04:07:04.944Z,101551.53
2023-05-01T04:09:31.614Z,101542.53
2023-05-01T04:11:58.260Z,101540.88
2023-05-01T04:14:24.815Z,101543.59
2023-05-01T04:16:51.442Z,101532.69
2023-05-01T04:19:17.973Z,101535.41
2023-05-01T04:21:44.542Z,101537.88
2023-05-01T04:24:11.103Z,101529.16
2023-05-01T04:26:39.007Z,101538.44
2023-05-01T04:29:05.684Z,101542.78
2023-05-01T04:31:32.273Z,101532.97
2023-05-01T04:33:58.895Z,101528.91
2023-05-01T04:36:25.420Z,101526.97
2023-05-01T04:38:52.336Z,101526.69
2023-05-01T04:41:19.460Z,101534.06
2023-05-01T04:43:45.988Z,101523.97
2023-05-01T04:46:12.609Z,101532.16
2023-05-01T04:48:39.106Z,101529.13
2023-05-01T04:51:05.647Z,101540.31
2023-05-01T04:53:32.229Z,101532.97
2023-05-01T04:55:58.872Z,101536.78
2023-05-01T04:58:25.349Z,101533.78
2023-05-01T05:00:51.925Z,101535.16
2023-05-01T05:03:19.703Z,101534.88
2023-05-01T05:05:46.792Z,101537.88
2023-05-01T05:08:13.388Z,101537.06
2023-05-01T05:10:40.024Z,101538.41
2023-05-01T05:13:06.582Z,101540.06
2023-05-01T05:15:33.077Z,101533.50
2023-05-01T05:17:59.637Z,101534.59
2023-05-01T05:20:26.344Z,101538.13
2023-05-01T05:22:52.835Z,101539.25
2023-05-01T05:25:19.619Z,101538.44
2023-05-01T05:27:46.178Z,101531.34
2023-05-01T05:30:13.150Z,101529.44
2023-05-01T05:32:39.766Z,101531.06
2023-05-01T05:35:07.152Z,101529.69
2023-05-01T05:37:34.174Z,101535.13
2023-05-01T05:40:00.726Z,101532.41
2023-05-01T05:42:27.385Z,101535.94
2023-05-01T05:44:53.868Z,101531.34
2023-05-01T05:47:20.460Z,101534.31
2023-05-01T05:49:47.021Z,101526.97
2023-05-01T05:52:13.698Z,101527.53
2023-05-01T05:54:40.621Z,101527.53
2023-05-01T05:57:07.230Z,101523.97
2023-05-01T05:59:33.709Z,101528.63
2023-05-01T06:02:00.333Z,101525.91
2023-05-01T06:04:26.858Z,101524.78
2023-05-01T06:06:53.607Z,101523.16
2023-05-01T06:09:20.231Z,101519.59
2023-05-01T06:11:47.710Z,101524.78
2023-05-01T06:14:15.199Z,101523.16
2023-05-01T06:16:41.764Z,101523.16
2023-05-01T06:19:10.308Z,101526.16
2023-05-01T06:21:36.818Z,101517.97
2023-05-01T06:24:03.635Z,101515.00
2023-05-01T06:26:30.211Z,101521.78
2023-05-01T06:28:56.804Z,101526.16
2023-05-01T06:31:23.447Z,101528.88
2023-05-01T06:33:49.939Z,101519.88
2023-05-01T06:36:16.409Z,101531.88
2023-05-01T06:38:48.673Z,101522.88
2023-05-01T06:41:18.411Z,101531.06
2023-05-01T06:43:44.966Z,101525.34
2023-05-01T06:46:12.517Z,101524.78
2023-05-01T06:48:39.175Z,101523.97
2023-05-01T06:51:05.875Z,101526.44
2023-05-01T06:53:32.698Z,101534.59
2023-05-01T06:55:59.230Z,101527.50
2023-05-01T06:58:25.819Z,101527.50
2023-05-01T07:00:54.151Z,101525.63
2023-05-01T07:03:21.523Z,101528.34
2023-05-01T07:05:48.157Z,101531.06
2023-05-01T07:08:14.696Z,101523.16
2023-05-01T07:10:42.229Z,101532.69
2023-05-01T07:13:09.665Z,101536.25
2023-05-01T07:15:36.271Z,101534.88
2023-05-01T07:18:06.264Z,101531.88
2023-05-01T07:20:33.174Z,101532.94
2023-05-01T07:22:59.804Z,101522.88
2023-05-01T07:25:26.455Z,101538.16
2023-05-01T07:27:53.185Z,101527.50
2023-05-01T07:30:20.382Z,101528.06
2023-05-01T07:32:47.166Z,101535.69
2023-05-01T07:35:14.029Z,101535.97
2023-05-01T07:37:40.568Z,101530.22
2023-05-01T07:40:07.896Z,101530.22
2023-05-01T07:42:34.377Z,101530.22
2023-05-01T07:45:00.968Z,101534.03
2023-05-01T07:47:28.179Z,101532.13
2023-05-01T07:49:55.280Z,101531.06
2023-05-01T07:52:22.004Z,101532.13
2023-05-01T07:54:52.019Z,101532.13
2023-05-01T07:57:18.968Z,101527.50
2023-05-01T07:59:45.657Z,101531.31
2023-05-01T08:02:13.860Z,101536.78
2023-05-01T08:04:41.692Z,101534.88
2023-05-01T08:07:08.675Z,101541.41
2023-05-01T08:09:35.381Z,101543.59
2023-05-01T08:12:03.904Z,101537.34
2023-05-01T08:14:30.847Z,101544.94
2023-05-01T08:16:57.493Z,101553.13
2023-05-01T08:19:24.376Z,101555.84
2023-05-01T08:21:51.192Z,101555.84
2023-05-01T08:24:17.684Z,101557.78
2023-05-01T08:26:44.322Z,101561.31
2023-05-01T08:29:11.095Z,101558.59
2023-05-01T08:31:39.437Z,101563.50
2023-05-01T08:34:06.294Z,101561.06
2023-05-01T08:36:33.060Z,101564.84
2023-05-01T08:38:59.583Z,101567.56
2023-05-01T08:41:28.080Z,101568.69
2023-05-01T08:43:58.068Z,101581.22
2023-05-01T08:46:45.119Z,101579.28
2023-05-01T08:49:16.760Z,101590.19
2023-05-01T08:51:48.041Z,101575.75
2023-05-01T08:54:15.648Z,101575.75
2023-05-01T08:56:44.781Z,101593.50
2023-05-01T08:59:14.365Z,101585.31
2023-05-01T09:01:43.028Z,101580.69
2023-05-01T09:04:12.047Z,101577.94
2023-05-01T09:06:38.834Z,101587.75
2023-05-01T09:09:05.820Z,101596.50
2023-05-01T09:11:32.977Z,101589.13
2023-05-01T09:14:01.639Z,101579.88
2023-05-01T09:16:29.418Z,101583.41
2023-05-01T09:18:57.203Z,101586.69
2023-05-01T09:21:24.966Z,101599.78
2023-05-01T09:23:51.739Z,101586.41
2023-05-01T09:26:18.383Z,101584.78
2023-05-01T09:28:45.847Z,101583.97
2023-05-01T09:31:28.910Z,101578.50
2023-05-01T09:33:58.380Z,101589.69
2023-05-01T09:36:29.812Z,101583.41
2023-05-01T09:38:57.516Z,101589.69
2023-05-01T09:41:24.398Z,101601.41
2023-05-01T09:43:53.354Z,101591.84
2023-05-01T09:46:20.500Z,101590.22
2023-05-01T09:49:01.440Z,101591.03
2023-05-01T09:51:29.197Z,101597.06
2023-05-01T09:53:58.226Z,101594.59
2023-05-01T09:56:29.845Z,101592.94
2023-05-01T09:58:58.364Z,101594.88
2023-05-01T10:01:41.010Z,101590.22
2023-05-01T10:04:09.567Z,101594.06
2023-05-01T10:06:37.247Z,101600.03
2023-05-01T10:09:04.701Z,101600.31
2023-05-01T10:11:31.360Z,101594.88
2023-05-01T10:14:09.173Z,101597.59
2023-05-01T10:16:37.677Z,101599.50
2023-05-01T10:19:05.172Z,101603.03
2023-05-01T10:21:36.312Z,101608.22
2023-05-01T10:24:07.826Z,101611.22
2023-05-01T10:26:35.010Z,101615.59
2023-05-01T10:29:01.989Z,101616.69
2023-05-01T10:31:29.969Z,101619.41
2023-05-01T10:33:56.967Z,101615.88
2023-05-01T10:36:32.233Z,101611.22
2023-05-01T10:38:59.111Z,101619.97
2023-05-01T10:41:57.856Z,101614.75
2023-05-01T10:44:26.370Z,101607.69
2023-05-01T10:46:53.751Z,101622.94
2023-05-01T10:49:21.400Z,101620.22
2023-05-01T10:51:58.031Z,101603.59
2023-05-01T10:54:25.645Z,101606.59
2023-05-01T10:56:53.746Z,101607.16
2023-05-01T10:59:20.552Z,101605.50
2023-05-01T11:01:48.750Z,101615.34
2023-05-01T11:04:30.546Z,101604.13
2023-05-01T11:07:05.964Z,101605.25
2023-05-01T11:09:55.327Z,101610.69
2023-05-01T11:12:47.161Z,101598.69
2023-05-01T11:15:27.038Z,101604.94
2023-05-01T11:17:54.355Z,101604.69
2023-05-01T11:20:27.180Z,101595.97
2023-05-01T11:22:57.251Z,101599.50
2023-05-01T11:25:27.604Z,101603.03
2023-05-01T11:27:56.662Z,101598.44
2023-05-01T11:30:23.516Z,101596.53
2023-05-01T11:32:51.302Z,101590.25
2023-05-01T11:35:20.441Z,101603.59
2023-05-01T11:37:48.133Z,101597.34
2023-05-01T11:40:22.104Z,101607.16
2023-05-01T11:42:50.145Z,101605.22
2023-05-01T11:45:17.247Z,101604.97
2023-05-01T11:47:44.153Z,101604.16
2023-05-01T11:50:11.558Z,101604.16
2023-05-01T11:52:55.447Z,101597.88
2023-05-01T11:55:31.590Z,101603.31
2023-05-01T11:57:58.739Z,101599.53
2023-05-01T12:00:39.538Z,101602.78
2023-05-01T12:03:14.389Z,101598.97
2023-05-01T12:05:43.166Z,101601.69
2023-05-01T12:08:13.889Z,101612.59
2023-05-01T12:10:43.990Z,101610.72
2023-05-01T12:13:13.947Z,101623.25
2023-05-01T12:15:45.243Z,101609.59
2023-05-01T12:18:13.334Z,101611.53
2023-05-01T12:20:42.662Z,101604.97
2023-05-01T12:23:11.690Z,101599.81
2023-05-01T12:25:40.162Z,101607.69
2023-05-01T12:28:15.060Z,101606.88
2023-05-01T12:30:43.183Z,101609.59
2023-05-01T12:33:12.765Z,101607.41
2023-05-01T12:35:41.047Z,101602.81
2023-05-01T12:38:15.593Z,101611.81
2023-05-01T12:40:59.703Z,101609.59
2023-05-01T12:43:38.037Z,101618.59
2023-05-01T12:46:06.066Z,101609.59
2023-05-01T12:48:35.727Z,101613.16
2023-05-01T12:51:02.264Z,101619.41
2023-05-01T12:53:29.615Z,101616.69
2023-05-01T12:55:59.388Z,101613.16
2023-05-01T12:58:38.488Z,101612.06
2023-05-01T13:01:06.306Z,101623.00
2023-05-01T13:03:37.719Z,101617.53
2023-05-01T13:06:06.790Z,101622.16
2023-05-01T13:08:42.452Z,101627.59
2023-05-01T13:11:14.530Z,101623.00
2023-05-01T13:13:41.593Z,101624.63
2023-05-01T13:16:20.271Z,101628.16
2023-05-01T13:18:51.414Z,101628.44
2023-05-01T13:21:22.492Z,101623.81
2023-05-01T13:23:54.250Z,101622.16
2023-05-01T13:26:31.620Z,101628.16
2023-05-01T13:29:00.102Z,101621.06
2023-05-01T13:31:26.808Z,101625.44
2023-05-01T13:33:55.264Z,101623.25
2023-05-01T13:36:26.616Z,101620.53
2023-05-01T13:38:56.671Z,101629.78
2023-05-01T13:41:27.272Z,101632.53
2023-05-01T13:43:56.208Z,101629.78
2023-05-01T13:46:24.946Z,101627.88
2023-05-01T13:48:52.043Z,101628.44
2023-05-01T13:51:23.642Z,101631.16
2023-05-01T13:53:50.651Z,101626.53
2023-05-01T13:56:17.297Z,101619.97
2023-05-01T13:58:43.797Z,101624.63
2023-05-01T14:01:18.815Z,101626.28
2023-05-01T14:03:45.954Z,101626.28
2023-05-01T14:06:15.133Z,101614.50
2023-05-01T14:08:43.211Z,101619.75
2023-05-01T14:11:11.631Z,101624.09
2023-05-01T14:13:42.764Z,101620.03
2023-05-01T14:16:11.761Z,101634.47
2023-05-01T14:18:45.371Z,101627.09
2023-05-01T14:21:16.564Z,101625.19
2023-05-01T14:23:43.187Z,101621.38
2023-05-01T14:26:18.491Z,101628.19
2023-05-01T14:28:46.379Z,101633.66
2023-05-01T14:31:28.527Z,101626.03
2023-05-01T14:33:58.062Z,101630.66
2023-05-01T14:36:25.198Z,101636.94
2023-05-01T14:38:52.050Z,101631.47
2023-05-01T14:41:21.640Z,101640.19
2023-05-01T14:43:53.124Z,101641.81
2023-05-01T14:46:28.810Z,101645.13
2023-05-01T14:48:55.562Z,101644.00
2023-05-01T14:51:22.075Z,101647.56
2023-05-01T14:53:48.814Z,101651.94
2023-05-01T14:56:15.652Z,101663.41
2023-05-01T14:58:42.263Z,101647.84
2023-05-01T15:01:08.910Z,101669.66
2023-05-01T15:03:42.263Z,101662.84
2023-05-01T15:06:09.456Z,101669.94
2023-05-01T15:08:38.271Z,101674.34
2023-05-01T15:11:05.316Z,101662.31
2023-05-01T15:13:31.991Z,101668.31
2023-05-01T15:15:58.766Z,101671.88
2023-05-01T15:18:25.549Z,101665.56
2023-05-01T15:20:52.149Z,101665.31
2023-05-01T15:23:18.720Z,101659.56
2023-05-01T15:25:45.326Z,101660.94
2023-05-01T15:28:13.517Z,101658.75
2023-05-01T15:30:44.398Z,101663.13
2023-05-01T15:33:11.416Z,101660.13
2023-05-01T15:35:38.596Z,101671.03
2023-05-01T15:38:05.553Z,101666.13
2023-05-01T15:40:32.971Z,101675.13
2023-05-01T15:42:59.450Z,101675.66
2023-05-01T15:45:26.168Z,101686.59
2023-05-01T15:47:53.133Z,101683.84
2023-05-01T15:50:19.987Z,101681.69
2023-05-01T15:52:47.448Z,101687.97
2023-05-01T15:55:14.011Z,101684.13
2023-05-01T15:57:40.698Z,101681.97
2023-05-01T16:00:08.893Z,101689.88
2023-05-01T16:02:35.474Z,101689.03
2023-05-01T16:05:02.046Z,101701.59
2023-05-01T16:07:31.702Z,101700.53
2023-05-01T16:09:59.349Z,101698.63
2023-05-01T16:12:29.023Z,101694.50
2023-05-01T16:14:55.879Z,101698.88
2023-05-01T16:17:22.613Z,101691.50
2023-05-01T16:19:49.691Z,101696.97
2023-05-01T16:22:16.776Z,101695.06
2023-05-01T16:24:43.403Z,101694.75
2023-05-01T16:27:13.544Z,101691.78
2023-05-01T16:29:40.055Z,101698.88
2023-05-01T16:32:11.356Z,101703.22
2023-05-01T16:34:39.348Z,101708.69
2023-05-01T16:37:06.443Z,101714.97
2023-05-01T16:39:36.996Z,101721.00
2023-05-01T16:42:03.730Z,101717.44
2023-05-01T16:44:30.350Z,101717.16
2023-05-01T16:46:58.626Z,101724.28
2023-05-01T16:49:29.823Z,101719.63
2023-05-01T16:51:57.367Z,101729.44
2023-05-01T16:54:26.919Z,101731.09
2023-05-01T16:56:53.448Z,101726.72
2023-05-01T16:59:19.962Z,101731.91
2023-05-01T17:01:46.504Z,101732.19
2023-05-01T17:04:15.015Z,101728.09
2023-05-01T17:06:41.655Z,101739.03
2023-05-01T17:09:08.894Z,101743.41
2023-05-01T17:11:35.818Z,101744.22
2023-05-01T17:14:02.825Z,101738.75
2023-05-01T17:16:30.136Z,101747.78
2023-05-01T17:18:56.772Z,101749.69
2023-05-01T17:21:24.790Z,101748.59
2023-05-01T17:23:51.294Z,101753.78
2023-05-01T17:26:17.831Z,101756.53
2023-05-01T17:28:45.161Z,101756.53
2023-05-01T17:31:11.701Z,101757.34
2023-05-01T17:33:38.268Z,101765.53
2023-05-01T17:36:04.926Z,101767.97
2023-05-01T17:38:31.601Z,101763.34
2023-05-01T17:40:58.205Z,101762.53
2023-05-01T17:43:26.713Z,101770.47
2023-05-01T17:45:53.406Z,101774.25
2023-05-01T17:48:20.049Z,101777.84
2023-05-01T17:50:46.686Z,101777.00
2023-05-01T17:53:13.489Z,101786.03
2023-05-01T17:55:40.181Z,101782.44
2023-05-01T17:58:07.080Z,101774.25
2023-05-01T18:00:33.757Z,101781.38
2023-05-01T18:03:00.419Z,101783.28
2023-05-01T18:05:27.365Z,101791.22
2023-05-01T18:07:53.973Z,101800.22
2023-05-01T18:10:20.619Z,101791.22
2023-05-01T18:12:49.727Z,101797.47
2023-05-01T18:15:21.964Z,101800.22
2023-05-01T18:17:49.664Z,101799.41
2023-05-01T18:20:16.417Z,101799.69
2023-05-01T18:22:42.994Z,101800.50
2023-05-01T18:25:10.088Z,101802.13
2023-05-01T18:27:41.631Z,101801.31
2023-05-01T18:30:08.940Z,101811.44
2023-05-01T18:32:46.943Z,101809.75
2023-05-01T18:35:15.204Z,101814.16
2023-05-01T18:37:42.543Z,101822.59
2023-05-01T18:40:09.893Z,101817.72
2023-05-01T18:42:36.677Z,101815.22
2023-05-01T18:45:04.087Z,101825.34
2023-05-01T18:47:32.396Z,101817.97
2023-05-01T18:49:59.551Z,101821.78
2023-05-01T18:52:26.566Z,101820.97
2023-05-01T18:54:53.120Z,101826.44
2023-05-01T18:57:19.680Z,101833.81
2023-05-01T18:59:46.257Z,101839.28
2023-05-01T19:02:12.952Z,101847.47
2023-05-01T19:04:56.044Z,101837.38
2023-05-01T19:07:23.725Z,101837.66
2023-05-01T19:09:50.256Z,101848.84
2023-05-01T19:12:16.754Z,101856.72
2023-05-01T19:14:43.283Z,101859.19
2023-05-01T19:17:10.270Z,101862.75
2023-05-01T19:19:36.805Z,101868.47
2023-05-01T19:22:03.310Z,101869.31
2023-05-01T19:24:29.814Z,101863.84
2023-05-01T19:26:56.428Z,101875.84
2023-05-01T19:29:22.981Z,101875.59
2023-05-01T19:31:49.747Z,101881.28
2023-05-01T19:34:16.538Z,101872.28
2023-05-01T19:36:43.081Z,101878.03
2023-05-01T19:39:10.146Z,101878.28
2023-05-01T19:41:37.010Z,101892.75
2023-05-01T19:44:03.822Z,101895.78
2023-05-01T19:46:30.494Z,101897.94
2023-05-01T19:48:57.237Z,101913.50
2023-05-01T19:51:23.872Z,101906.13
2023-05-01T19:53:50.890Z,101910.78
2023-05-01T19:56:17.402Z,101911.59
2023-05-01T19:58:44.025Z,101914.88
2023-05-01T20:01:12.732Z,101931.00
2023-05-01T20:03:39.313Z,101928.53
2023-05-01T20:06:06.496Z,101936.97
2023-05-01T20:08:33.718Z,101936.16
2023-05-01T20:11:01.743Z,101936.97
2023-05-01T20:13:28.362Z,101938.91
2023-05-01T20:15:55.347Z,101943.53
2023-05-01T20:18:22.253Z,101942.72
2023-05-01T20:20:49.004Z,101940.81
2023-05-01T20:23:17.740Z,101942.72
2023-05-01T20:25:46.451Z,101944.66
2023-05-01T20:28:14.966Z,101938.66
2023-05-01T20:30:43.701Z,101946.56
2023-05-01T20:33:10.937Z,101946.28
2023-05-01T20:35:38.386Z,101942.72
2023-05-01T20:38:05.230Z,101941.91
2023-05-01T20:40:32.698Z,101937.28
2023-05-01T20:43:00.148Z,101947.38
2023-05-01T20:45:27.563Z,101944.66
2023-05-01T20:47:54.527Z,101943.84
2023-05-01T20:50:21.414Z,101946.28
2023-05-01T20:52:48.719Z,101947.38
2023-05-01T20:55:15.390Z,101945.75
2023-05-01T20:57:41.916Z,101946.84
2023-05-01T21:00:10.128Z,101953.94
2023-05-01T21:02:41.193Z,101952.84
2023-05-01T21:05:11.600Z,101951.22
2023-05-01T21:07:39.631Z,101952.03
2023-05-01T21:10:07.907Z,101960.22
2023-05-01T21:12:34.540Z,101953.38
2023-05-01T21:15:02.627Z,101957.47
2023-05-01T21:17:32.580Z,101943.25
2023-05-01T21:19:59.796Z,101952.56
2023-05-01T21:22:27.019Z,101958.84
2023-05-01T21:24:56.238Z,101965.38
2023-05-01T21:27:24.372Z,101963.47
2023-05-01T21:29:58.556Z,101980.69
2023-05-01T21:32:30.599Z,101977.13
2023-05-01T21:34:57.202Z,101989.16
2023-05-01T21:37:23.965Z,101993.22
2023-05-01T21:39:51.084Z,101982.06
2023-05-01T21:42:18.075Z,101983.13
2023-05-01T21:44:44.613Z,101986.66
2023-05-01T21:47:12.590Z,101983.13
2023-05-01T21:49:39.937Z,101982.31
2023-05-01T21:52:08.771Z,101976.03
2023-05-01T21:54:38.470Z,101977.38
2023-05-01T21:57:07.573Z,101991.88
2023-05-01T21:59:37.690Z,101993.75
2023-05-01T22:02:08.651Z,101996.25
2023-05-01T22:04:35.919Z,101994.59
2023-05-01T22:07:02.637Z,101998.69
2023-05-01T22:09:29.579Z,101998.69
2023-05-01T22:11:58.605Z,102009.59
2023-05-01T22:14:30.898Z,102004.13
2023-05-01T22:17:06.803Z,102007.13
2023-05-01T22:19:33.410Z,102012.56
2023-05-01T22:22:00.110Z,102015.31
2023-05-01T22:24:26.653Z,102022.69
2023-05-01T22:26:53.264Z,102028.16
2023-05-01T22:29:19.918Z,102022.69
2023-05-01T22:31:46.581Z,102021.88
2023-05-01T22:34:13.206Z,102028.41
2023-05-01T22:36:39.813Z,102031.16
2023-05-01T22:39:06.352Z,102043.41
2023-05-01T22:41:33.069Z,102044.81
2023-05-01T22:43:59.590Z,102044.00
2023-05-01T22:46:26.223Z,102047.53
2023-05-01T22:48:52.827Z,102055.16
2023-05-01T22:51:19.307Z,102053.53
2023-05-01T22:53:45.911Z,102058.16
2023-05-01T22:56:12.477Z,102052.97
2023-05-01T22:58:38.932Z,102062.81
2023-05-01T23:01:05.532Z,102060.88
2023-05-01T23:03:33.377Z,102061.16
2023-05-01T23:06:01.223Z,102075.63
2023-05-01T23:08:28.343Z,102077.56
2023-05-01T23:10:54.953Z,102081.34
2023-05-01T23:13:23.582Z,102092.25
2023-05-01T23:15:50.648Z,102091.44
2023-05-01T23:18:25.410Z,102110.56
2023-05-01T23:20:52.547Z,102103.72
2023-05-01T23:23:21.209Z,102118.44
2023-05-01T23:25:49.223Z,102119.28
2023-05-01T23:28:26.314Z,102105.63
2023-05-01T23:30:56.949Z,102102.06
2023-05-01T23:33:39.640Z,102109.44
2023-05-01T23:36:10.342Z,102108.88
2023-05-01T23:38:36.881Z,102124.72
2023-05-01T23:41:04.792Z,102114.31
2023-05-01T23:43:32.398Z,102110.78
2023-05-01T23:45:59.072Z,102119.78
2023-05-01T23:48:25.663Z,102122.78
2023-05-01T23:50:52.385Z,102120.34
2023-05-01T23:53:19.002Z,102122.78
2023-05-01T23:55:46.784Z,102125.78
2023-05-01T23:58:13.776Z,102124.97
